Time;durP1;ratioP1;P1;durP2;ratioP2;P2;SDS_P1;SDS_P2;PMS_P1;PMS_P2;Temp;Humidity;BMP_temperature;BMP_pressure;BME280_temperature;BME280_humidity;BME280_pressure;Samples;Min_cycle;Max_cycle;Signal;HPM_P1;HPM_P2
2024/03/23 00:02:24;;;;;;;21.10;19.20;;;10.20;53.10;;;;;;4797952;29;20424;-38
2024/03/23 00:04:50;;;;;;;21.93;19.90;;;10.20;54.60;;;;;;4794344;29;20447;-39
2024/03/23 00:07:17;;;;;;;21.13;19.17;;;10.30;41.40;;;;;;4778886;29;20454;-38
2024/03/23 00:09:43;;;;;;;21.60;19.60;;;10.30;41.20;;;;;;4803121;29;20444;-38
2024/03/23 00:12:10;;;;;;;19.97;18.33;;;10.30;22.80;;;;;;4794345;29;20548;-39
2024/03/23 00:14:37;;;;;;;19.13;17.53;;;10.30;7.00;;;;;;4804888;29;20499;-44
2024/03/23 00:17:04;;;;;;;18.80;17.10;;;10.30;5.50;;;;;;4796124;29;20475;-39
2024/03/23 00:19:32;;;;;;;20.17;18.07;;;10.30;1.00;;;;;;4800246;29;20492;-40
2024/03/23 00:21:58;;;;;;;19.30;17.70;;;10.30;1.00;;;;;;4796878;29;20448;-41
2024/03/23 00:24:25;;;;;;;20.10;18.30;;;10.40;1.00;;;;;;4797305;29;20432;-39
2024/03/23 00:26:51;;;;;;;19.17;17.57;;;10.40;1.00;;;;;;4788495;29;20453;-38
2024/03/23 00:29:18;;;;;;;19.50;17.90;;;10.30;1.00;;;;;;4798964;29;20451;-42
2024/03/23 00:31:44;;;;;;;19.00;17.50;;;10.40;1.00;;;;;;4793504;29;20486;-38
2024/03/23 00:34:11;;;;;;;19.70;17.83;;;10.40;1.00;;;;;;4809023;29;20486;-42
2024/03/23 00:36:38;;;;;;;19.20;17.50;;;10.40;1.00;;;;;;4797206;29;20450;-40
2024/03/23 00:39:04;;;;;;;19.77;17.97;;;10.40;1.00;;;;;;4813691;29;20763;-41
2024/03/23 00:41:31;;;;;;;18.60;17.07;;;10.40;1.00;;;;;;4808041;29;20435;-40
2024/03/23 00:43:57;;;;;;;19.83;18.13;;;10.30;1.00;;;;;;4813216;29;20910;-40
2024/03/23 00:46:24;;;;;;;19.27;17.70;;;10.30;1.00;;;;;;4806287;29;20458;-38
2024/03/23 00:48:50;;;;;;;18.67;16.93;;;10.20;1.00;;;;;;4808930;29;20447;-38
2024/03/23 00:51:17;;;;;;;21.00;18.97;;;10.20;1.00;;;;;;4807272;29;20435;-41
2024/03/23 00:53:43;;;;;;;19.87;18.27;;;10.20;1.00;;;;;;4810920;29;20466;-42
2024/03/23 00:56:09;;;;;;;20.03;18.33;;;10.10;1.00;;;;;;4810825;29;20437;-40
2024/03/23 00:58:34;;;;;;;19.57;17.97;;;10.10;1.00;;;;;;4791134;29;20431;-51
2024/03/23 01:01:00;;;;;;;19.57;18.07;;;10.10;1.00;;;;;;4807363;29;20385;-47
2024/03/23 01:03:26;;;;;;;21.00;19.20;;;10.00;1.00;;;;;;4810107;29;21262;-53
2024/03/23 01:05:53;;;;;;;21.67;19.57;;;10.00;1.00;;;;;;4807367;29;20661;-49
2024/03/23 01:08:19;;;;;;;21.23;19.23;;;9.90;1.00;;;;;;4802529;29;20199;-50
2024/03/23 01:10:57;;;;;;;20.93;18.83;;;9.90;1.00;;;;;;4806134;29;20435;-46
2024/03/23 01:13:23;;;;;;;20.20;18.30;;;9.90;1.00;;;;;;4807449;29;20285;-51
2024/03/23 01:15:54;;;;;;;22.00;20.07;;;9.90;1.00;;;;;;4800162;29;20474;-52
2024/03/23 01:18:21;;;;;;;20.03;18.23;;;10.00;1.00;;;;;;4796789;29;20502;-51
2024/03/23 01:20:46;;;;;;;21.37;19.50;;;10.00;1.00;;;;;;4807083;29;20455;-47
2024/03/23 01:23:12;;;;;;;21.57;19.57;;;10.00;1.00;;;;;;4808639;29;20862;-53
2024/03/23 01:25:38;;;;;;;21.43;19.53;;;10.10;1.00;;;;;;4804478;29;20801;-49
2024/03/23 01:28:04;;;;;;;20.77;19.00;;;10.00;1.00;;;;;;4786128;29;20662;-38
2024/03/23 01:30:30;;;;;;;21.60;19.60;;;10.00;1.00;;;;;;4810279;29;20199;-41
2024/03/23 01:32:56;;;;;;;22.23;20.10;;;10.00;1.00;;;;;;4814044;29;20442;-46
2024/03/23 01:35:21;;;;;;;21.97;19.70;;;9.90;1.00;;;;;;4807788;29;20486;-38
2024/03/23 01:37:47;;;;;;;22.20;19.90;;;9.90;1.00;;;;;;4813222;29;20189;-39
2024/03/23 01:40:15;;;;;;;22.70;20.70;;;9.80;1.00;;;;;;4804709;29;20198;-41
2024/03/23 01:42:41;;;;;;;23.13;20.97;;;9.80;1.00;;;;;;4812462;29;20201;-38
2024/03/23 01:45:08;;;;;;;22.13;20.03;;;9.70;1.00;;;;;;4811050;29;20427;-39
2024/03/23 01:47:34;;;;;;;22.27;20.17;;;9.60;1.00;;;;;;4796665;29;20202;-40
2024/03/23 01:49:59;;;;;;;22.47;20.37;;;9.60;1.80;;;;;;4796196;29;20443;-38
2024/03/23 01:52:27;;;;;;;23.10;20.93;;;9.50;4.10;;;;;;4796187;29;21035;-38
2024/03/23 01:54:53;;;;;;;22.70;20.37;;;9.50;12.50;;;;;;4796027;29;20963;-43
2024/03/23 01:57:22;;;;;;;22.80;20.70;;;9.40;17.00;;;;;;4795997;29;20535;-41
2024/03/23 01:59:49;;;;;;;22.77;20.40;;;9.30;19.20;;;;;;4796244;29;20783;-39
2024/03/23 02:02:17;;;;;;;23.03;20.83;;;9.20;19.00;;;;;;4782626;29;21244;-39
2024/03/23 02:04:43;;;;;;;21.87;19.70;;;9.20;23.20;;;;;;4796844;29;20464;-41
2024/03/23 02:07:08;;;;;;;21.57;19.47;;;9.10;29.90;;;;;;4802248;29;20435;-39
2024/03/23 02:09:34;;;;;;;22.07;19.70;;;9.00;32.90;;;;;;4796026;29;20534;-40
2024/03/23 02:12:02;;;;;;;22.53;20.37;;;8.90;44.40;;;;;;4803106;29;20762;-38
2024/03/23 02:14:28;;;;;;;21.57;19.47;;;8.80;51.30;;;;;;4795526;29;20237;-41
2024/03/23 02:16:53;;;;;;;22.90;20.63;;;8.70;62.10;;;;;;4795541;29;20435;-39
2024/03/23 02:19:19;;;;;;;21.60;19.50;;;8.70;89.10;;;;;;4796359;29;20198;-38
2024/03/23 02:21:46;;;;;;;22.00;19.90;;;8.60;98.70;;;;;;4806725;29;20216;-40
2024/03/23 02:24:12;;;;;;;23.17;20.97;;;8.60;99.90;;;;;;4807417;29;21065;-38
2024/03/23 02:26:37;;;;;;;22.00;19.63;;;8.60;99.90;;;;;;4807633;29;20444;-41
2024/03/23 02:29:03;;;;;;;21.30;19.20;;;8.50;99.90;;;;;;4806004;29;20198;-42
2024/03/23 02:31:29;;;;;;;21.43;19.50;;;8.50;99.90;;;;;;4796569;29;21313;-40
2024/03/23 02:33:54;;;;;;;22.37;19.97;;;8.50;99.90;;;;;;4811568;29;20200;-39
2024/03/23 02:36:21;;;;;;;21.60;19.60;;;8.60;99.90;;;;;;4808547;29;20194;-46
2024/03/23 02:38:46;;;;;;;22.07;19.93;;;8.60;99.90;;;;;;4812891;29;20210;-46
2024/03/23 02:41:12;;;;;;;22.97;20.70;;;8.60;99.90;;;;;;4811973;29;21534;-51
2024/03/23 02:43:38;;;;;;;22.20;20.17;;;8.70;99.90;;;;;;4802517;29;20225;-49
2024/03/23 02:46:04;;;;;;;23.20;20.83;;;8.60;99.90;;;;;;4807873;29;20202;-48
2024/03/23 02:48:30;;;;;;;22.97;20.70;;;8.60;99.90;;;;;;4800837;29;20205;-48
2024/03/23 02:50:55;;;;;;;21.73;19.60;;;8.60;99.90;;;;;;4794866;29;20456;-52
2024/03/23 02:53:21;;;;;;;24.93;20.70;;;8.60;99.90;;;;;;4801553;29;20927;-51
2024/03/23 02:55:46;;;;;;;22.20;19.90;;;8.60;99.90;;;;;;4809067;29;20299;-52
2024/03/23 02:58:12;;;;;;;22.63;20.10;;;8.50;99.90;;;;;;4799808;29;20263;-52
2024/03/23 03:00:38;;;;;;;21.63;19.57;;;8.50;99.90;;;;;;4808818;29;20252;-48
2024/03/23 03:03:04;;;;;;;23.97;20.60;;;8.50;99.90;;;;;;4799078;29;20658;-45
2024/03/23 03:05:29;;;;;;;22.10;20.13;;;8.40;99.90;;;;;;4810524;29;20189;-49
2024/03/23 03:07:55;;;;;;;22.63;20.37;;;8.40;99.90;;;;;;4803660;29;20453;-48
2024/03/23 03:10:20;;;;;;;22.67;20.23;;;8.40;99.90;;;;;;4810378;29;20190;-49
2024/03/23 03:12:46;;;;;;;24.10;20.30;;;8.40;99.90;;;;;;4785587;29;20206;-50
2024/03/23 03:15:12;;;;;;;23.07;20.77;;;8.50;99.90;;;;;;4811185;29;20241;-50
2024/03/23 03:17:38;;;;;;;22.97;20.20;;;8.50;99.90;;;;;;4805139;29;20281;-46
2024/03/23 03:20:04;;;;;;;24.37;21.87;;;8.50;99.90;;;;;;4802646;29;20426;-45
2024/03/23 03:22:30;;;;;;;22.40;20.23;;;8.50;99.90;;;;;;4804395;29;20182;-50
2024/03/23 03:24:55;;;;;;;24.63;19.97;;;8.50;99.90;;;;;;4812158;29;20961;-52
2024/03/23 03:27:22;;;;;;;22.90;20.63;;;8.50;99.90;;;;;;4800217;29;20714;-47
2024/03/23 03:29:48;;;;;;;24.27;21.70;;;8.50;99.90;;;;;;4811737;29;20294;-49
2024/03/23 03:32:14;;;;;;;25.17;21.50;;;8.40;99.90;;;;;;4806862;29;20935;-49
2024/03/23 03:34:39;;;;;;;24.33;21.93;;;8.30;99.90;;;;;;4801072;29;20249;-53
2024/03/23 03:37:05;;;;;;;23.20;20.70;;;8.30;99.90;;;;;;4801511;29;21294;-46
2024/03/23 03:39:31;;;;;;;24.00;21.47;;;8.20;99.90;;;;;;4810100;29;20217;-51
2024/03/23 03:41:56;;;;;;;27.30;22.37;;;8.20;99.90;;;;;;4804877;29;20282;-47
2024/03/23 03:44:22;;;;;;;25.77;22.23;;;8.10;99.90;;;;;;4796053;29;20541;-49
2024/03/23 03:46:47;;;;;;;24.83;20.20;;;8.10;99.90;;;;;;4810760;29;20624;-50
2024/03/23 03:49:13;;;;;;;23.20;20.80;;;8.10;99.90;;;;;;4807961;29;20196;-50
2024/03/23 03:51:38;;;;;;;22.97;19.47;;;8.10;99.90;;;;;;4804978;29;20254;-48
2024/03/23 03:54:04;;;;;;;24.63;21.97;;;8.10;99.90;;;;;;4805941;29;20202;-52
2024/03/23 03:56:30;;;;;;;27.57;20.93;;;8.10;99.90;;;;;;4811657;29;20874;-48
2024/03/23 03:58:55;;;;;;;24.00;21.53;;;8.10;99.90;;;;;;4811226;29;20190;-51
2024/03/23 04:01:21;;;;;;;26.43;22.80;;;8.10;99.90;;;;;;4808606;29;20196;-50
2024/03/23 04:03:46;;;;;;;27.33;21.97;;;8.10;99.90;;;;;;4801496;29;20189;-45
2024/03/23 04:06:18;;;;;;;25.50;20.57;;;8.10;99.90;;;;;;4801436;29;20563;-49
2024/03/23 04:08:43;;;;;;;26.70;22.50;;;8.10;99.90;;;;;;4807262;29;20685;-50
2024/03/23 04:11:09;;;;;;;26.03;22.03;;;8.00;99.90;;;;;;4803794;29;20431;-52
2024/03/23 04:13:34;;;;;;;28.70;23.40;;;7.90;99.90;;;;;;4808101;29;20242;-50
2024/03/23 04:16:00;;;;;;;28.03;23.30;;;7.90;99.90;;;;;;4810652;29;20316;-48
2024/03/23 04:18:26;;;;;;;28.80;22.03;;;7.80;99.90;;;;;;4793580;29;20182;-52
2024/03/23 04:20:51;;;;;;;25.30;21.53;;;7.80;99.90;;;;;;4805158;29;20206;-45
2024/03/23 04:23:17;;;;;;;28.57;23.63;;;7.70;99.90;;;;;;4805265;29;20191;-50
2024/03/23 04:25:43;;;;;;;23.33;20.70;;;7.70;99.90;;;;;;4809464;29;20449;-52
2024/03/23 04:28:09;;;;;;;28.40;23.47;;;7.70;99.90;;;;;;4812051;29;20484;-53
2024/03/23 04:30:35;;;;;;;23.83;21.30;;;7.70;99.90;;;;;;4811941;29;20192;-48
2024/03/23 04:33:00;;;;;;;26.83;23.00;;;7.60;99.90;;;;;;4804465;29;20205;-52
2024/03/23 04:35:26;;;;;;;27.17;22.23;;;7.60;99.90;;;;;;4812302;29;20501;-51
2024/03/23 04:37:53;;;;;;;26.80;22.30;;;7.50;99.90;;;;;;4814890;29;20186;-50
2024/03/23 04:40:19;;;;;;;30.00;22.67;;;7.50;99.90;;;;;;4802401;29;20471;-51
2024/03/23 04:42:45;;;;;;;26.50;22.80;;;7.40;99.90;;;;;;4799942;29;20443;-48
2024/03/23 04:45:10;;;;;;;26.40;22.53;;;7.40;99.90;;;;;;4800639;29;20198;-52
2024/03/23 04:47:37;;;;;;;25.17;21.40;;;7.40;99.90;;;;;;4814367;29;20241;-51
2024/03/23 04:50:04;;;;;;;30.27;22.43;;;7.30;99.90;;;;;;4787822;29;20194;-50
2024/03/23 04:52:29;;;;;;;24.50;20.77;;;7.30;99.90;;;;;;4806556;29;20887;-51
2024/03/23 04:54:55;;;;;;;26.47;21.13;;;7.20;99.90;;;;;;4803112;29;20463;-51
2024/03/23 04:57:21;;;;;;;27.70;21.73;;;7.20;99.90;;;;;;4803044;29;20185;-49
2024/03/23 04:59:47;;;;;;;25.43;21.40;;;7.20;99.90;;;;;;4800357;29;20713;-47
2024/03/23 05:02:13;;;;;;;28.03;23.00;;;7.10;99.90;;;;;;4799629;29;20630;-49
2024/03/23 05:04:38;;;;;;;27.50;21.33;;;7.10;99.90;;;;;;4805393;29;20434;-48
2024/03/23 05:07:04;;;;;;;31.67;24.23;;;7.10;99.90;;;;;;4812432;29;20950;-51
2024/03/23 05:09:30;;;;;;;27.77;22.30;;;7.10;99.90;;;;;;4806961;29;20187;-47
2024/03/23 05:12:05;;;;;;;29.13;23.23;;;7.10;99.90;;;;;;4813170;29;20186;-52
2024/03/23 05:14:30;;;;;;;25.80;22.07;;;7.10;99.90;;;;;;4802095;29;21006;-51
2024/03/23 05:16:56;;;;;;;28.77;22.63;;;7.10;99.90;;;;;;4805618;29;20432;-45
2024/03/23 05:19:22;;;;;;;30.00;23.10;;;7.00;99.90;;;;;;4808948;29;20186;-52
2024/03/23 05:21:48;;;;;;;35.63;24.27;;;7.10;99.90;;;;;;4808319;29;20227;-52
2024/03/23 05:24:13;;;;;;;31.33;24.50;;;7.10;99.90;;;;;;4799144;29;20777;-50
2024/03/23 05:26:39;;;;;;;32.97;23.37;;;7.10;99.90;;;;;;4807646;29;20439;-49
2024/03/23 05:29:06;;;;;;;35.53;23.00;;;7.10;99.90;;;;;;4803645;29;20265;-52
2024/03/23 05:31:32;;;;;;;31.97;23.70;;;7.10;99.90;;;;;;4798358;29;20210;-52
2024/03/23 05:33:58;;;;;;;32.60;23.90;;;7.10;99.90;;;;;;4811282;29;20897;-48
2024/03/23 05:36:26;;;;;;;29.80;23.13;;;7.10;99.90;;;;;;4804441;29;20217;-47
2024/03/23 05:38:52;;;;;;;35.83;25.03;;;7.10;99.90;;;;;;4812638;29;20709;-51
2024/03/23 05:41:17;;;;;;;30.27;24.10;;;7.30;99.90;;;;;;4801109;29;20427;-52
2024/03/23 05:43:43;;;;;;;26.83;23.13;;;7.40;99.90;;;;;;4807445;29;20190;-52
2024/03/23 05:46:09;;;;;;;29.50;23.20;;;7.50;99.90;;;;;;4808752;29;20214;-50
2024/03/23 05:48:35;;;;;;;34.33;24.43;;;7.50;99.90;;;;;;4813636;29;21093;-47
2024/03/23 05:51:01;;;;;;;31.20;23.30;;;7.60;99.90;;;;;;4804552;29;20434;-47
2024/03/23 05:53:28;;;;;;;28.40;23.40;;;7.70;99.90;;;;;;4812133;29;20503;-51
2024/03/23 05:56:03;;;;;;;29.97;23.10;;;7.70;99.90;;;;;;4801168;29;20209;-49
2024/03/23 05:58:29;;;;;;;32.97;24.33;;;7.80;99.90;;;;;;4805519;29;20443;-50
2024/03/23 06:00:59;;;;;;;34.47;24.20;;;7.90;99.90;;;;;;4801008;29;20455;-48
2024/03/23 06:03:25;;;;;;;35.70;24.50;;;7.90;99.90;;;;;;4801897;29;20242;-38
2024/03/23 06:05:52;;;;;;;34.17;23.40;;;8.00;99.90;;;;;;4802268;29;20447;-38
2024/03/23 06:08:19;;;;;;;30.80;22.13;;;8.10;99.90;;;;;;4806565;29;21066;-39
2024/03/23 06:10:45;;;;;;;29.37;24.57;;;8.10;99.90;;;;;;4807413;29;20435;-38
2024/03/23 06:13:11;;;;;;;37.83;26.33;;;8.10;99.90;;;;;;4809913;29;20435;-42
2024/03/23 06:15:37;;;;;;;29.70;24.70;;;8.20;99.90;;;;;;4806550;29;20536;-42
2024/03/23 06:18:04;;;;;;;32.17;25.50;;;8.30;99.90;;;;;;4805381;29;20427;-38
2024/03/23 06:20:30;;;;;;;34.77;26.17;;;8.20;99.90;;;;;;4803717;29;20435;-38
2024/03/23 06:22:55;;;;;;;30.90;24.60;;;8.20;99.90;;;;;;4798090;29;20788;-40
2024/03/23 06:25:21;;;;;;;34.50;25.67;;;8.10;99.90;;;;;;4806610;29;20907;-42
2024/03/23 06:27:47;;;;;;;35.00;26.50;;;8.00;99.90;;;;;;4799153;29;20190;-39
2024/03/23 06:30:13;;;;;;;37.57;26.87;;;8.00;99.90;;;;;;4801302;29;20202;-40
2024/03/23 06:32:38;;;;;;;32.47;26.93;;;8.00;99.90;;;;;;4802207;29;20569;-38
2024/03/23 06:35:08;;;;;;;32.10;26.27;;;8.00;99.90;;;;;;4807918;29;20472;-39
2024/03/23 06:37:34;;;;;;;33.07;25.10;;;8.10;99.90;;;;;;4813064;29;20764;-44
2024/03/23 06:40:00;;;;;;;35.60;27.17;;;8.10;99.90;;;;;;4801649;29;20484;-42
2024/03/23 06:42:25;;;;;;;41.87;28.20;;;8.10;99.90;;;;;;4810700;29;20420;-39
2024/03/23 06:44:51;;;;;;;39.43;27.67;;;8.10;99.90;;;;;;4808056;29;20191;-38
2024/03/23 06:47:16;;;;;;;43.00;27.07;;;8.20;99.90;;;;;;4796496;29;20239;-43
2024/03/23 06:49:42;;;;;;;35.17;27.10;;;8.20;99.90;;;;;;4799193;29;20195;-37
2024/03/23 06:52:08;;;;;;;41.30;28.37;;;8.30;99.90;;;;;;4807974;29;20225;-39
2024/03/23 06:54:33;;;;;;;44.50;30.10;;;8.20;99.90;;;;;;4811717;29;20510;-38
2024/03/23 06:56:59;;;;;;;37.70;27.67;;;8.20;99.90;;;;;;4800841;29;21006;-38
2024/03/23 06:59:25;;;;;;;40.03;27.77;;;8.30;99.90;;;;;;4800707;29;20186;-38
2024/03/23 07:01:50;;;;;;;38.20;30.03;;;8.30;99.90;;;;;;4796160;29;20195;-39
2024/03/23 07:04:16;;;;;;;40.00;29.67;;;8.40;99.90;;;;;;4798398;29;20273;-38
2024/03/23 07:06:45;;;;;;;41.90;30.70;;;8.40;99.90;;;;;;4798644;29;20195;-39
2024/03/23 07:09:11;;;;;;;44.50;31.07;;;8.30;99.90;;;;;;4800539;29;20277;-38
2024/03/23 07:11:37;;;;;;;41.33;31.03;;;8.20;99.90;;;;;;4798408;29;20528;-40
2024/03/23 07:14:03;;;;;;;39.03;30.50;;;8.30;99.90;;;;;;4783943;29;20481;-39
2024/03/23 07:16:29;;;;;;;36.33;30.27;;;8.20;99.90;;;;;;4798062;29;20447;-39
2024/03/23 07:18:55;;;;;;;37.90;29.70;;;8.20;99.90;;;;;;4799650;29;20183;-39
2024/03/23 07:21:21;;;;;;;36.67;28.73;;;8.30;99.90;;;;;;4799722;29;20432;-39
2024/03/23 07:23:46;;;;;;;34.80;28.67;;;8.30;99.90;;;;;;4810197;29;20205;-39
2024/03/23 07:26:12;;;;;;;39.57;28.93;;;8.30;99.90;;;;;;4808274;29;20209;-42
2024/03/23 07:28:42;;;;;;;36.10;28.23;;;8.40;99.90;;;;;;4798338;29;20195;-44
2024/03/23 07:31:10;;;;;;;35.10;27.93;;;8.50;99.90;;;;;;4795091;29;20186;-44
2024/03/23 07:33:37;;;;;;;40.73;29.57;;;8.50;99.90;;;;;;4801963;29;20551;-39
2024/03/23 07:36:04;;;;;;;33.70;29.90;;;8.60;99.90;;;;;;4811101;29;20454;-40
2024/03/23 07:38:29;;;;;;;33.97;29.23;;;8.60;99.90;;;;;;4784225;29;20872;-43
2024/03/23 07:41:11;;;;;;;37.40;29.80;;;8.70;99.90;;;;;;4810953;29;20430;-39
2024/03/23 07:43:43;;;;;;;42.13;31.93;;;8.70;99.90;;;;;;4804168;29;20182;-40
2024/03/23 07:46:08;;;;;;;39.57;32.10;;;8.80;99.90;;;;;;4810487;29;20481;-38
2024/03/23 07:48:34;;;;;;;39.80;29.97;;;8.90;99.90;;;;;;4802048;29;20821;-47
2024/03/23 07:51:04;;;;;;;38.73;31.13;;;9.00;99.90;;;;;;4810928;29;20220;-45
2024/03/23 07:53:30;;;;;;;39.67;31.30;;;9.10;99.90;;;;;;4799042;29;20578;-44
2024/03/23 07:56:04;;;;;;;35.77;29.60;;;9.20;99.90;;;;;;4799573;29;20460;-47
2024/03/23 07:58:29;;;;;;;37.57;30.77;;;9.30;99.90;;;;;;4803544;29;20459;-49
2024/03/23 08:00:56;;;;;;;39.43;29.97;;;9.40;99.90;;;;;;4805257;29;20556;-45
2024/03/23 08:03:22;;;;;;;34.33;29.40;;;9.50;99.90;;;;;;4802082;29;20431;-49
2024/03/23 08:05:48;;;;;;;31.97;27.53;;;9.40;99.90;;;;;;4799149;29;20986;-46
2024/03/23 08:08:14;;;;;;;31.87;28.07;;;9.40;99.90;;;;;;4799814;29;20447;-47
2024/03/23 08:10:50;;;;;;;32.40;28.30;;;9.50;99.90;;;;;;4798784;29;20606;-50
2024/03/23 08:13:16;;;;;;;33.83;27.90;;;9.60;99.90;;;;;;4804822;29;20419;-50
2024/03/23 08:15:42;;;;;;;30.37;27.13;;;9.70;99.90;;;;;;4803122;29;20802;-45
2024/03/23 08:18:08;;;;;;;31.90;27.97;;;9.80;99.90;;;;;;4801047;29;20416;-45
2024/03/23 08:20:33;;;;;;;32.03;28.47;;;9.90;99.90;;;;;;4787130;29;20190;-44
2024/03/23 08:22:59;;;;;;;35.17;28.53;;;10.00;99.90;;;;;;4798031;29;20194;-49
2024/03/23 08:25:25;;;;;;;31.50;27.60;;;10.10;99.90;;;;;;4794758;29;20210;-47
2024/03/23 08:27:51;;;;;;;28.83;25.87;;;10.20;99.90;;;;;;4796320;29;20798;-49
2024/03/23 08:30:16;;;;;;;29.80;26.70;;;10.20;99.90;;;;;;4797347;29;20195;-48
2024/03/23 08:32:42;;;;;;;28.47;25.47;;;10.30;99.90;;;;;;4796046;29;20436;-49
2024/03/23 08:35:08;;;;;;;30.20;27.10;;;10.50;99.90;;;;;;4795439;29;20275;-48
2024/03/23 08:37:35;;;;;;;33.80;30.30;;;10.70;99.90;;;;;;4797232;29;20666;-51
2024/03/23 08:40:00;;;;;;;32.97;29.47;;;11.00;99.90;;;;;;4797867;29;20449;-45
2024/03/23 08:42:26;;;;;;;30.47;27.40;;;11.20;99.90;;;;;;4796825;29;20183;-52
2024/03/23 08:44:51;;;;;;;31.20;28.00;;;11.40;99.90;;;;;;4796172;29;20194;-47
2024/03/23 08:47:17;;;;;;;28.13;25.13;;;11.50;99.90;;;;;;4795811;29;20205;-50
2024/03/23 08:49:44;;;;;;;28.00;25.40;;;11.50;99.90;;;;;;4794629;29;20911;-48
2024/03/23 08:52:10;;;;;;;27.37;24.87;;;11.60;99.90;;;;;;4800099;29;20194;-46
2024/03/23 08:54:36;;;;;;;28.30;25.40;;;11.60;99.90;;;;;;4799608;29;20478;-47
2024/03/23 08:57:01;;;;;;;26.47;23.83;;;11.60;99.90;;;;;;4799366;29;20187;-52
2024/03/23 08:59:27;;;;;;;28.00;25.20;;;11.50;99.90;;;;;;4800596;29;20252;-49
2024/03/23 09:01:53;;;;;;;24.90;22.47;;;11.30;99.90;;;;;;4799962;29;20554;-50
2024/03/23 09:04:19;;;;;;;25.67;23.27;;;11.10;99.90;;;;;;4780917;29;20195;-49
2024/03/23 09:06:45;;;;;;;26.50;24.03;;;11.10;99.90;;;;;;4800031;29;20779;-49
2024/03/23 09:09:10;;;;;;;25.70;23.07;;;11.10;99.90;;;;;;4798126;29;20194;-51
2024/03/23 09:11:37;;;;;;;26.47;23.73;;;11.10;99.90;;;;;;4797201;29;20225;-49
2024/03/23 09:14:03;;;;;;;27.53;24.73;;;11.20;99.90;;;;;;4781666;29;20265;-47
2024/03/23 09:16:29;;;;;;;25.60;22.90;;;11.30;99.90;;;;;;4798794;29;20884;-51
2024/03/23 09:18:54;;;;;;;28.23;25.57;;;11.40;99.90;;;;;;4797892;29;20221;-45
2024/03/23 09:21:20;;;;;;;26.93;24.37;;;11.40;99.90;;;;;;4799761;29;20195;-44
2024/03/23 09:23:46;;;;;;;26.03;23.50;;;11.50;99.90;;;;;;4799177;29;20293;-48
2024/03/23 09:26:12;;;;;;;27.10;24.30;;;11.60;99.90;;;;;;4798803;29;20935;-47
2024/03/23 09:28:37;;;;;;;27.40;24.70;;;11.70;99.90;;;;;;4799069;29;20448;-50
2024/03/23 09:31:04;;;;;;;30.07;26.03;;;11.70;99.90;;;;;;4800972;29;20190;-50
2024/03/23 09:33:30;;;;;;;26.57;23.87;;;11.70;99.90;;;;;;4798458;29;20253;-44
2024/03/23 09:35:56;;;;;;;25.40;23.07;;;11.50;99.90;;;;;;4800871;29;20467;-36
2024/03/23 09:38:22;;;;;;;25.97;23.50;;;11.60;99.90;;;;;;4799295;29;20217;-36
2024/03/23 09:40:52;;;;;;;26.80;23.90;;;11.70;99.90;;;;;;4796809;29;20572;-36
2024/03/23 09:43:18;;;;;;;25.77;23.20;;;11.70;99.90;;;;;;4798950;29;20429;-36
2024/03/23 09:45:45;;;;;;;25.23;22.83;;;11.70;64.50;;;;;;4797656;29;20432;-38
2024/03/23 09:48:12;;;;;;;22.73;20.80;;;11.90;68.20;;;;;;4796717;29;20198;-38
2024/03/23 09:50:42;;;;;;;24.50;22.30;;;12.10;14.00;;;;;;4795855;29;20452;-37
2024/03/23 09:53:09;;;;;;;28.90;26.40;;;12.30;18.90;;;;;;4780832;29;20436;-41
2024/03/23 09:55:38;;;;;;;28.67;26.17;;;12.20;70.30;;;;;;4800204;29;20547;-37
2024/03/23 09:58:08;;;;;;;28.67;25.80;;;11.70;98.40;;;;;;4799291;29;20822;-38
2024/03/23 10:00:34;;;;;;;27.80;25.30;;;11.40;99.90;;;;;;4804046;29;20969;-36
2024/03/23 10:03:04;;;;;;;26.93;24.47;;;11.10;99.90;;;;;;4800133;29;20443;-38
2024/03/23 10:05:36;;;;;;;20.90;19.30;;;11.00;99.90;;;;;;4803029;29;20505;-36
2024/03/23 10:08:13;;;;;;;18.10;16.90;;;10.50;99.90;;;;;;4799496;29;20434;-37
2024/03/23 10:10:42;;;;;;;16.30;15.20;;;10.00;99.90;;;;;;4794711;29;20450;-48
2024/03/23 10:13:08;;;;;;;14.73;13.60;;;9.70;99.90;;;;;;4797546;29;20442;-46
2024/03/23 10:15:35;;;;;;;14.83;13.93;;;9.40;99.90;;;;;;4797800;29;20546;-49
2024/03/23 10:18:20;;;;;;;13.70;13.00;;;9.20;99.90;;;;;;4810152;29;21184;-47
2024/03/23 10:21:06;;;;;;;13.87;12.97;;;8.90;99.90;;;;;;4796420;29;20443;-49
2024/03/23 10:23:36;;;;;;;13.27;12.67;;;8.80;99.90;;;;;;4801659;29;20428;-44
2024/03/23 10:26:27;;;;;;;11.27;10.70;;;8.60;99.90;;;;;;4795946;29;21430;-49
2024/03/23 10:29:00;;;;;;;12.83;12.23;;;8.30;99.90;;;;;;4795959;29;20510;-45
2024/03/23 10:31:26;;;;;;;12.67;12.07;;;7.90;99.90;;;;;;4799936;29;20440;-47
2024/03/23 10:33:54;;;;;;;12.23;11.63;;;7.60;99.90;;;;;;4804766;29;20470;-48
2024/03/23 10:36:21;;;;;;;12.30;11.70;;;7.60;99.90;;;;;;4797509;29;20206;-48
2024/03/23 10:38:47;;;;;;;12.77;12.07;;;7.40;99.90;;;;;;4794489;29;20448;-44
2024/03/23 10:41:13;;;;;;;13.17;12.50;;;7.40;99.90;;;;;;4795885;29;20444;-50
2024/03/23 10:43:39;;;;;;;12.50;11.80;;;7.20;99.90;;;;;;4800070;29;20448;-49
2024/03/23 10:46:05;;;;;;;11.57;11.13;;;7.00;99.90;;;;;;4797488;29;20566;-44
2024/03/23 10:48:34;;;;;;;12.50;12.00;;;6.80;99.90;;;;;;4795023;29;20547;-44
2024/03/23 10:51:00;;;;;;;12.73;12.23;;;6.70;99.90;;;;;;4795382;29;20523;-45
2024/03/23 10:53:27;;;;;;;12.83;12.33;;;6.70;99.90;;;;;;4796132;29;21130;-47
2024/03/23 10:55:53;;;;;;;12.30;11.80;;;6.60;99.90;;;;;;4799065;29;20481;-46
2024/03/23 10:58:44;;;;;;;12.90;12.23;;;6.40;99.90;;;;;;4777896;29;20192;-46
2024/03/23 11:01:13;;;;;;;13.30;12.60;;;6.40;99.90;;;;;;4791523;29;20516;-47
2024/03/23 11:03:44;;;;;;;13.17;12.63;;;6.30;99.90;;;;;;4796626;29;20678;-49
2024/03/23 11:06:10;;;;;;;12.70;12.20;;;6.40;99.90;;;;;;4797647;29;20447;-51
2024/03/23 11:08:39;;;;;;;12.70;12.20;;;6.40;99.90;;;;;;4794325;29;21094;-49
2024/03/23 11:11:13;;;;;;;13.33;12.73;;;6.40;99.90;;;;;;4796409;29;20532;-47
2024/03/23 11:13:39;;;;;;;13.30;12.70;;;6.40;99.90;;;;;;4803786;29;20503;-52
2024/03/23 11:16:31;;;;;;;13.30;12.73;;;6.50;99.90;;;;;;4800683;29;20586;-37
2024/03/23 11:19:34;;;;;;;13.00;12.50;;;6.50;99.90;;;;;;4797774;29;20202;-37
2024/03/23 11:22:01;;;;;;;13.73;13.13;;;6.60;99.90;;;;;;4797183;29;20427;-37
2024/03/23 11:24:26;;;;;;;13.30;12.70;;;6.70;99.90;;;;;;4795726;29;20421;-38
2024/03/23 11:26:52;;;;;;;12.73;12.23;;;6.80;99.90;;;;;;4795989;29;20471;-38
2024/03/23 11:29:18;;;;;;;12.90;12.40;;;6.90;99.90;;;;;;4794898;29;20283;-37
2024/03/23 11:31:47;;;;;;;12.17;11.67;;;6.90;99.90;;;;;;4794699;29;20195;-37
2024/03/23 11:34:15;;;;;;;12.30;11.80;;;6.90;99.90;;;;;;4797417;29;20427;-39
2024/03/23 11:36:40;;;;;;;13.00;12.40;;;6.90;99.90;;;;;;4795986;29;20470;-37
2024/03/23 11:39:32;;;;;;;13.60;12.90;;;6.70;99.90;;;;;;4795419;29;20422;-37
2024/03/23 11:41:57;;;;;;;12.70;12.20;;;6.50;99.90;;;;;;4790182;29;20269;-37
2024/03/23 11:44:25;;;;;;;12.70;12.20;;;6.50;99.90;;;;;;4796078;29;20258;-37
2024/03/23 11:46:52;;;;;;;12.90;12.40;;;6.50;99.90;;;;;;4796189;29;20198;-37
2024/03/23 11:49:27;;;;;;;12.00;11.50;;;6.50;99.90;;;;;;4800935;29;20474;-37
2024/03/23 11:51:54;;;;;;;12.80;12.30;;;6.30;99.90;;;;;;4798409;29;20450;-37
2024/03/23 11:54:24;;;;;;;12.35;11.85;;;6.20;99.90;;;;;;4793827;29;21176;-39
2024/03/23 11:56:59;;;;;;;12.70;12.20;;;6.20;99.90;;;;;;4796057;29;20234;-38
2024/03/23 11:59:40;;;;;;;12.85;12.25;;;6.20;99.90;;;;;;4801546;29;20193;-37
2024/03/23 12:02:10;;;;;;;11.95;11.45;;;6.20;99.90;;;;;;4800637;29;20263;-38
2024/03/23 12:04:37;;;;;;;11.93;11.43;;;6.30;99.90;;;;;;4810799;29;20326;-37
2024/03/23 12:07:20;;;;;;;12.60;12.00;;;6.30;99.90;;;;;;4811573;29;20190;-38
2024/03/23 12:10:03;;;;;;;12.37;11.87;;;6.40;99.90;;;;;;4809786;29;20526;-38
2024/03/23 12:12:28;;;;;;;13.00;12.40;;;6.50;99.90;;;;;;4806950;29;20431;-38
2024/03/23 12:15:08;;;;;;;12.30;11.80;;;6.50;99.90;;;;;;4809532;29;20495;-37
2024/03/23 12:17:34;;;;;;;12.90;12.30;;;6.50;99.90;;;;;;4798362;29;20633;-39
2024/03/23 12:20:00;;;;;;;13.50;12.90;;;6.50;99.90;;;;;;4798888;29;21018;-37
2024/03/23 12:22:26;;;;;;;13.10;12.50;;;6.60;99.90;;;;;;4779216;29;21358;-38
2024/03/23 12:24:52;;;;;;;13.80;13.00;;;6.60;99.90;;;;;;4809674;29;20235;-37
2024/03/23 12:27:18;;;;;;;13.30;12.70;;;6.70;99.90;;;;;;4808591;29;20199;-49
2024/03/23 12:29:46;;;;;;;13.30;12.70;;;6.80;99.90;;;;;;4797467;29;20430;-47
2024/03/23 12:32:13;;;;;;;13.97;13.27;;;6.80;99.90;;;;;;4804341;29;20193;-52
2024/03/23 12:34:38;;;;;;;13.10;12.50;;;6.80;99.90;;;;;;4815683;29;20980;-48
2024/03/23 12:37:05;;;;;;;14.47;13.77;;;6.80;99.90;;;;;;4809771;29;20560;-48